createdAt,value
2022-08-28T00:01:44.599Z,5.18
2022-08-28T00:04:46.732Z,5.18
2022-08-28T00:07:49.004Z,5.95
2022-08-28T00:10:51.127Z,3.53
2022-08-28T00:13:53.313Z,4.28
2022-08-28T00:16:58.724Z,4.25
2022-08-28T00:20:00.918Z,7.22
2022-08-28T00:23:03.275Z,5.40
2022-08-28T00:26:05.451Z,6.07
2022-08-28T00:29:08.561Z,4.53
2022-08-28T00:32:10.724Z,5.72
2022-08-28T00:35:12.888Z,4.93
2022-08-28T00:38:15.868Z,4.32
2022-08-28T00:41:18.047Z,5.93
2022-08-28T00:44:28.800Z,4.97
2022-08-28T00:47:30.988Z,5.10
2022-08-28T00:50:52.967Z,7.03
2022-08-28T00:53:59.423Z,4.57
2022-08-28T00:57:07.826Z,5.05
2022-08-28T01:00:19.910Z,4.25
2022-08-28T01:03:25.012Z,4.85
2022-08-28T01:06:28.534Z,4.45
2022-08-28T01:09:31.313Z,5.30
2022-08-28T01:12:33.533Z,4.93
2022-08-28T01:15:36.118Z,5.28
2022-08-28T01:18:39.377Z,6.10
2022-08-28T01:22:11.436Z,6.55
2022-08-28T01:25:18.439Z,6.43
2022-08-28T01:28:20.689Z,4.70
2022-08-28T01:31:22.894Z,5.35
2022-08-28T01:34:25.074Z,5.18
2022-08-28T01:37:27.216Z,5.85
2022-08-28T01:40:38.137Z,5.25
2022-08-28T01:43:41.182Z,5.78
2022-08-28T01:46:43.527Z,4.95
2022-08-28T01:49:45.747Z,4.55
2022-08-28T01:52:47.964Z,4.45
2022-08-28T01:55:50.704Z,4.68
2022-08-28T01:58:53.251Z,5.10
2022-08-28T02:01:55.510Z,4.47
2022-08-28T02:04:58.295Z,5.20
2022-08-28T02:08:02.775Z,5.38
2022-08-28T02:11:06.385Z,5.97
2022-08-28T02:14:08.724Z,5.22
2022-08-28T02:17:12.187Z,5.35
2022-08-28T02:20:14.601Z,6.18
2022-08-28T02:23:17.950Z,4.72
2022-08-28T02:26:20.873Z,5.75
2022-08-28T02:29:23.601Z,4.47
2022-08-28T02:32:26.868Z,7.32
2022-08-28T02:35:29.089Z,4.65
2022-08-28T02:38:31.187Z,4.38
2022-08-28T02:41:34.897Z,6.95
2022-08-28T02:44:37.018Z,5.15
2022-08-28T02:47:40.716Z,4.55
2022-08-28T02:50:42.778Z,6.40
2022-08-28T02:53:44.938Z,5.05
2022-08-28T02:56:47.087Z,5.07
2022-08-28T02:59:49.170Z,3.60
2022-08-28T03:02:51.453Z,5.55
2022-08-28T03:05:53.668Z,5.13
2022-08-28T03:08:55.834Z,5.45
2022-08-28T03:11:57.905Z,5.78
2022-08-28T03:15:00.086Z,5.15
2022-08-28T03:18:02.174Z,6.00
2022-08-28T03:21:10.394Z,5.82
2022-08-28T03:24:12.518Z,6.85
2022-08-28T03:27:17.794Z,5.40
2022-08-28T03:30:20.475Z,4.78
2022-08-28T03:33:22.550Z,5.97
2022-08-28T03:36:26.819Z,4.25
2022-08-28T03:39:28.910Z,4.60
2022-08-28T03:42:31.570Z,3.92
2022-08-28T03:45:34.674Z,4.35
2022-08-28T03:48:37.581Z,4.85
2022-08-28T03:51:39.665Z,7.28
2022-08-28T03:54:41.732Z,5.22
2022-08-28T03:57:44.314Z,4.78
2022-08-28T04:00:46.515Z,4.70
2022-08-28T04:03:48.907Z,4.72
2022-08-28T04:06:51.006Z,4.30
2022-08-28T04:09:53.802Z,5.85
2022-08-28T04:12:56.115Z,5.10
2022-08-28T04:16:05.176Z,4.35
2022-08-28T04:19:08.657Z,5.53
2022-08-28T04:22:10.859Z,5.20
2022-08-28T04:25:12.988Z,8.82
2022-08-28T04:28:15.062Z,7.82
2022-08-28T04:31:17.697Z,7.03
2022-08-28T04:34:19.858Z,6.95
2022-08-28T04:37:22.820Z,7.28
2022-08-28T04:40:30.118Z,5.15
2022-08-28T04:43:32.334Z,6.97
2022-08-28T04:46:34.591Z,5.85
2022-08-28T04:49:36.804Z,4.55
2022-08-28T04:52:38.894Z,5.78
2022-08-28T04:55:53.462Z,6.00
2022-08-28T04:58:56.922Z,4.63
2022-08-28T05:01:59.071Z,5.22
2022-08-28T05:05:01.163Z,5.15
2022-08-28T05:08:03.479Z,3.88
2022-08-28T05:11:33.837Z,4.32
2022-08-28T05:14:36.891Z,5.78
2022-08-28T05:17:38.991Z,6.75
2022-08-28T05:20:43.773Z,4.15
2022-08-28T05:23:46.429Z,4.80
2022-08-28T05:26:48.791Z,4.88
2022-08-28T05:29:51.357Z,5.32
2022-08-28T05:32:53.993Z,5.50
2022-08-28T05:35:56.086Z,4.38
2022-08-28T05:38:58.318Z,7.32
2022-08-28T05:42:00.426Z,5.18
2022-08-28T05:45:02.577Z,4.10
2022-08-28T05:48:04.794Z,5.70
2022-08-28T05:51:08.917Z,4.15
2022-08-28T05:54:11.646Z,5.85
2022-08-28T05:57:13.719Z,7.40
2022-08-28T06:00:15.993Z,5.43
2022-08-28T06:03:18.063Z,3.80
2022-08-28T06:06:20.133Z,5.47
2022-08-28T06:09:29.604Z,4.50
2022-08-28T06:12:32.203Z,5.50
2022-08-28T06:15:36.078Z,5.85
2022-08-28T06:18:38.449Z,4.35
2022-08-28T06:21:41.499Z,3.45
2022-08-28T06:24:43.646Z,5.38
2022-08-28T06:27:45.739Z,4.50
2022-08-28T06:31:18.059Z,4.65
2022-08-28T06:34:10.186Z,5.85
2022-08-28T06:37:12.269Z,5.45
2022-08-28T06:40:14.754Z,5.20
2022-08-28T06:43:17.710Z,5.75
2022-08-28T06:46:19.989Z,5.18
2022-08-28T06:49:22.207Z,4.95
2022-08-28T06:52:24.271Z,4.05
2022-08-28T06:55:26.427Z,4.75
2022-08-28T06:58:29.554Z,7.03
2022-08-28T07:01:34.830Z,5.82
2022-08-28T07:04:38.077Z,7.97
2022-08-28T07:07:40.246Z,4.43
2022-08-28T07:10:42.313Z,6.70
2022-08-28T07:13:45.034Z,5.57
2022-08-28T07:16:47.214Z,5.15
2022-08-28T07:19:49.387Z,5.55
2022-08-28T07:22:54.133Z,5.18
2022-08-28T07:26:06.535Z,5.72
2022-08-28T07:29:09.990Z,5.72
2022-08-28T07:32:13.383Z,4.47
2022-08-28T07:35:16.766Z,3.97
2022-08-28T07:38:19.168Z,4.05
2022-08-28T07:41:24.140Z,4.22
2022-08-28T07:44:45.024Z,4.07
2022-08-28T07:47:47.218Z,4.30
2022-08-28T07:50:49.499Z,4.13
2022-08-28T07:53:53.434Z,4.60
2022-08-28T07:56:55.767Z,3.97
2022-08-28T07:59:59.439Z,4.55
2022-08-28T08:03:01.574Z,4.07
2022-08-28T08:06:04.622Z,3.80
2022-08-28T08:09:09.149Z,5.85
2022-08-28T08:12:11.754Z,6.07
2022-08-28T08:15:14.029Z,4.25
2022-08-28T08:18:17.184Z,4.55
2022-08-28T08:21:26.051Z,4.90
2022-08-28T08:24:30.525Z,3.97
2022-08-28T08:27:33.424Z,3.95
2022-08-28T08:30:35.494Z,4.78
2022-08-28T08:33:39.368Z,5.05
2022-08-28T08:36:41.439Z,5.35
2022-08-28T08:39:43.953Z,4.20
2022-08-28T08:42:48.138Z,4.47
2022-08-28T08:45:52.119Z,6.00
2022-08-28T08:48:54.286Z,3.97
2022-08-28T08:52:25.324Z,4.05
2022-08-28T08:55:31.402Z,5.72
2022-08-28T08:58:37.119Z,3.97
2022-08-28T09:02:07.487Z,4.47
2022-08-28T09:05:15.551Z,4.65
2022-08-28T09:08:28.015Z,4.55
2022-08-28T09:11:57.109Z,6.07
2022-08-28T09:15:05.581Z,4.57
2022-08-28T09:18:28.670Z,4.45
2022-08-28T09:21:34.152Z,5.80
2022-08-28T09:24:39.290Z,5.53
2022-08-28T09:27:52.764Z,5.25
2022-08-28T09:31:05.485Z,4.70
2022-08-28T09:34:23.669Z,6.13
2022-08-28T09:37:26.576Z,4.90
2022-08-28T09:40:50.868Z,4.13
2022-08-28T09:43:53.016Z,5.53
2022-08-28T09:46:55.138Z,4.78
2022-08-28T09:50:14.307Z,5.65
2022-08-28T09:53:19.621Z,4.65
2022-08-28T09:56:30.456Z,6.35
2022-08-28T09:59:32.562Z,3.78
2022-08-28T10:02:54.322Z,4.63
2022-08-28T10:06:19.978Z,4.35
2022-08-28T10:09:36.870Z,5.25
2022-08-28T10:13:30.282Z,5.13
2022-08-28T10:16:49.103Z,4.10
2022-08-28T10:20:17.809Z,4.53
2022-08-28T10:23:28.750Z,4.82
2022-08-28T10:26:43.386Z,7.07
2022-08-28T10:29:53.730Z,8.70
2022-08-28T10:33:41.897Z,6.65
2022-08-28T10:36:44.724Z,4.95
2022-08-28T10:39:59.076Z,14.05
2022-08-28T10:43:07.392Z,5.38
2022-08-28T10:46:46.324Z,6.13
2022-08-28T10:49:50.570Z,8.13
2022-08-28T10:53:32.046Z,6.55
2022-08-28T10:56:43.195Z,5.88
2022-08-28T10:59:46.985Z,4.25
2022-08-28T11:02:55.433Z,4.00
2022-08-28T11:06:05.865Z,6.00
2022-08-28T11:09:26.767Z,4.90
2022-08-28T11:12:34.375Z,4.38
2022-08-28T11:15:37.557Z,4.15
2022-08-28T11:19:09.949Z,4.85
2022-08-28T11:22:22.666Z,6.28
2022-08-28T11:25:47.467Z,5.28
2022-08-28T11:28:50.654Z,4.85
2022-08-28T11:32:28.737Z,6.00
2022-08-28T11:35:30.715Z,5.72
2022-08-28T11:38:41.578Z,5.00
2022-08-28T11:42:11.249Z,5.05
2022-08-28T11:45:42.626Z,5.38
2022-08-28T11:48:56.656Z,4.50
2022-08-28T11:52:23.712Z,5.47
2022-08-28T11:55:55.085Z,5.40
2022-08-28T11:59:08.123Z,4.38
2022-08-28T12:02:39.953Z,5.57
2022-08-28T12:05:45.611Z,6.55
2022-08-28T12:08:51.407Z,6.22
2022-08-28T12:12:07.230Z,5.20
2022-08-28T12:15:09.594Z,5.03
2022-08-28T12:18:11.864Z,4.13
2022-08-28T12:21:17.845Z,5.10
2022-08-28T12:24:22.542Z,3.42
2022-08-28T12:27:25.141Z,4.65
2022-08-28T12:30:33.462Z,5.38
2022-08-28T12:33:47.142Z,3.70
2022-08-28T12:36:57.610Z,3.53
2022-08-28T12:40:27.968Z,4.63
2022-08-28T12:43:41.738Z,4.88
2022-08-28T12:46:49.529Z,6.43
2022-08-28T12:49:51.687Z,5.13
2022-08-28T12:52:56.859Z,4.35
2022-08-28T12:55:59.123Z,4.53
2022-08-28T12:59:38.951Z,5.68
2022-08-28T13:02:41.403Z,4.60
2022-08-28T13:05:43.802Z,5.88
2022-08-28T13:08:47.894Z,5.35
2022-08-28T13:11:51.431Z,4.20
2022-08-28T13:14:53.950Z,6.05
2022-08-28T13:17:56.264Z,9.07
2022-08-28T13:21:15.179Z,4.03
2022-08-28T13:24:27.358Z,4.93
2022-08-28T13:27:29.663Z,4.85
2022-08-28T13:30:33.852Z,4.90
2022-08-28T13:33:36.065Z,4.22
2022-08-28T13:36:50.004Z,5.38
2022-08-28T13:39:52.150Z,4.97
2022-08-28T13:43:00.915Z,6.50
2022-08-28T13:46:03.199Z,9.68
2022-08-28T13:49:05.397Z,5.28
2022-08-28T13:52:07.951Z,5.72
2022-08-28T13:55:11.683Z,6.90
2022-08-28T13:58:14.297Z,5.13
2022-08-28T14:01:19.667Z,6.78
2022-08-28T14:04:24.791Z,6.25
2022-08-28T14:07:26.948Z,6.10
2022-08-28T14:10:29.170Z,5.20
2022-08-28T14:13:31.342Z,4.55
2022-08-28T14:16:37.847Z,6.10
2022-08-28T14:19:42.197Z,5.80
2022-08-28T14:22:44.622Z,7.45
2022-08-28T14:25:47.311Z,8.13
2022-08-28T14:28:49.472Z,5.72
2022-08-28T14:31:51.874Z,7.45
2022-08-28T14:34:54.098Z,6.20
2022-08-28T14:37:56.467Z,6.95
2022-08-28T14:40:58.654Z,7.20
2022-08-28T14:44:00.911Z,7.38
2022-08-28T14:47:03.353Z,7.43
2022-08-28T14:50:06.604Z,6.78
2022-08-28T14:53:09.770Z,8.35
2022-08-28T14:56:12.071Z,9.02
2022-08-28T14:59:21.921Z,9.02
2022-08-28T15:02:26.070Z,9.68
2022-08-28T15:05:28.530Z,7.68
2022-08-28T15:08:31.034Z,7.18
2022-08-28T15:11:35.419Z,8.48
2022-08-28T15:14:37.567Z,7.53
2022-08-28T15:17:39.714Z,8.10
2022-08-28T15:20:44.844Z,8.00
2022-08-28T15:23:49.734Z,7.45
2022-08-28T15:26:52.079Z,7.30
2022-08-28T15:29:54.225Z,7.40
2022-08-28T15:32:56.339Z,8.00
2022-08-28T15:35:58.469Z,7.90
2022-08-28T15:39:19.344Z,7.75
2022-08-28T15:42:21.498Z,10.65
2022-08-28T15:45:23.668Z,9.93
2022-08-28T15:48:25.882Z,9.30
2022-08-28T15:51:28.119Z,8.32
2022-08-28T15:54:30.323Z,7.05
2022-08-28T15:57:32.839Z,7.82
2022-08-28T16:00:34.995Z,8.73
2022-08-28T16:03:38.254Z,9.65
2022-08-28T16:06:40.649Z,8.38
2022-08-28T16:09:42.814Z,8.13
2022-08-28T16:12:44.942Z,8.38
2022-08-28T16:15:52.378Z,8.48
2022-08-28T16:18:54.557Z,9.52
2022-08-28T16:21:57.118Z,8.48
2022-08-28T16:24:59.243Z,9.13
2022-08-28T16:28:01.606Z,9.15
2022-08-28T16:31:07.377Z,8.02
2022-08-28T16:34:10.931Z,11.10
2022-08-28T16:37:18.576Z,9.13
2022-08-28T16:40:23.672Z,7.55
2022-08-28T16:43:25.912Z,7.72
2022-08-28T16:46:28.226Z,9.18
2022-08-28T16:49:30.370Z,8.73
2022-08-28T16:52:32.510Z,8.82
2022-08-28T16:55:35.102Z,8.68
2022-08-28T16:58:38.101Z,8.82
2022-08-28T17:01:40.813Z,8.52
2022-08-28T17:04:44.174Z,7.70
2022-08-28T17:07:47.475Z,8.80
2022-08-28T17:10:49.603Z,9.77
2022-08-28T17:13:51.710Z,7.55
2022-08-28T17:16:53.846Z,8.73
2022-08-28T17:19:55.984Z,11.27
2022-08-28T17:22:58.220Z,8.90
2022-08-28T17:26:00.426Z,7.95
2022-08-28T17:29:03.006Z,10.27
2022-08-28T17:32:07.813Z,9.93
2022-08-28T17:35:09.946Z,7.10
2022-08-28T17:38:12.500Z,12.10
2022-08-28T17:41:14.919Z,10.73
2022-08-28T17:44:17.120Z,8.18
2022-08-28T17:47:21.750Z,8.05
2022-08-28T17:50:32.921Z,10.20
2022-08-28T17:53:35.429Z,9.27
2022-08-28T17:56:37.611Z,11.68
2022-08-28T17:59:40.239Z,9.57
2022-08-28T18:02:43.463Z,8.35
2022-08-28T18:05:46.275Z,7.32
2022-08-28T18:08:48.562Z,8.48
2022-08-28T18:11:51.394Z,7.25
2022-08-28T18:14:53.550Z,10.13
2022-08-28T18:17:55.823Z,8.32
2022-08-28T18:20:58.504Z,10.23
2022-08-28T18:24:00.622Z,11.30
2022-08-28T18:27:03.201Z,12.18
2022-08-28T18:30:05.930Z,14.18
2022-08-28T18:33:08.864Z,14.65
2022-08-28T18:36:12.571Z,15.65
2022-08-28T18:39:15.229Z,11.45
2022-08-28T18:42:25.025Z,9.60
2022-08-28T18:45:27.181Z,9.73
2022-08-28T18:48:29.379Z,13.13
2022-08-28T18:51:32.678Z,10.43
2022-08-28T18:54:34.810Z,10.68
2022-08-28T18:57:37.958Z,12.52
2022-08-28T19:00:40.197Z,11.77
2022-08-28T19:03:42.313Z,9.70
2022-08-28T19:06:44.493Z,10.02
2022-08-28T19:09:49.219Z,10.55
2022-08-28T19:12:51.371Z,10.90
2022-08-28T19:15:53.717Z,9.13
2022-08-28T19:18:55.924Z,12.05
2022-08-28T19:21:58.050Z,10.75
2022-08-28T19:25:02.603Z,10.25
2022-08-28T19:28:04.818Z,13.30
2022-08-28T19:31:07.894Z,9.25
2022-08-28T19:34:12.094Z,10.88
2022-08-28T19:37:16.211Z,10.45
2022-08-28T19:40:18.481Z,9.40
2022-08-28T19:43:20.634Z,10.65
2022-08-28T19:46:22.783Z,11.80
2022-08-28T19:49:24.946Z,13.55
2022-08-28T19:52:27.155Z,11.40
2022-08-28T19:55:29.619Z,11.90
2022-08-28T19:58:32.579Z,13.05
2022-08-28T20:01:38.146Z,14.52
2022-08-28T20:04:40.359Z,11.85
2022-08-28T20:07:42.455Z,13.55
2022-08-28T20:10:46.100Z,14.27
2022-08-28T20:13:48.497Z,13.48
2022-08-28T20:16:51.489Z,10.63
2022-08-28T20:19:53.893Z,13.18
2022-08-28T20:22:56.146Z,12.30
2022-08-28T20:25:58.470Z,14.02
2022-08-28T20:29:01.060Z,15.48
2022-08-28T20:32:04.366Z,12.35
2022-08-28T20:35:08.383Z,14.38
2022-08-28T20:38:11.148Z,13.18
2022-08-28T20:41:21.157Z,13.07
2022-08-28T20:44:23.367Z,12.18
2022-08-28T20:47:26.011Z,11.45
2022-08-28T20:50:28.123Z,13.85
2022-08-28T20:53:37.578Z,10.23
2022-08-28T20:56:40.242Z,10.48
2022-08-28T20:59:43.460Z,11.70
2022-08-28T21:02:45.586Z,10.15
2022-08-28T21:05:47.806Z,11.50
2022-08-28T21:08:51.351Z,11.85
2022-08-28T21:11:53.480Z,10.65
2022-08-28T21:14:55.631Z,11.43
2022-08-28T21:17:58.467Z,10.98
2022-08-28T21:21:04.446Z,11.35
2022-08-28T21:24:08.363Z,13.07
2022-08-28T21:27:10.463Z,13.50
2022-08-28T21:30:14.831Z,10.15
2022-08-28T21:33:16.992Z,10.88
2022-08-28T21:36:19.204Z,11.50
2022-08-28T21:39:21.291Z,10.65
2022-08-28T21:42:23.535Z,13.20
2022-08-28T21:45:25.598Z,11.57
2022-08-28T21:48:27.959Z,10.40
2022-08-28T21:51:30.042Z,10.85
2022-08-28T21:54:32.113Z,10.30
2022-08-28T21:57:34.591Z,11.52
2022-08-28T22:00:36.658Z,10.80
2022-08-28T22:03:38.727Z,10.43
2022-08-28T22:06:40.869Z,8.50
2022-08-28T22:09:43.199Z,8.82
2022-08-28T22:12:45.269Z,8.90
2022-08-28T22:15:48.006Z,8.65
2022-08-28T22:18:50.564Z,8.77
2022-08-28T22:22:11.462Z,9.02
2022-08-28T22:25:13.991Z,8.45
2022-08-28T22:28:16.145Z,8.10
2022-08-28T22:31:18.265Z,8.07
2022-08-28T22:34:20.408Z,7.63
2022-08-28T22:37:23.271Z,7.65
2022-08-28T22:40:25.528Z,8.18
2022-08-28T22:43:27.722Z,6.25
2022-08-28T22:46:30.085Z,8.23
2022-08-28T22:49:32.224Z,7.07
2022-08-28T22:52:34.373Z,6.65
2022-08-28T22:55:40.089Z,8.07
2022-08-28T22:58:45.436Z,7.70
2022-08-28T23:01:47.535Z,8.48
2022-08-28T23:04:51.317Z,7.72
2022-08-28T23:07:55.159Z,8.20
2022-08-28T23:10:59.275Z,7.22
2022-08-28T23:14:01.810Z,7.00
2022-08-28T23:17:03.965Z,7.25
2022-08-28T23:20:08.211Z,6.78
2022-08-28T23:23:12.366Z,9.18
2022-08-28T23:26:15.125Z,6.63
2022-08-28T23:29:17.326Z,6.47
2022-08-28T23:32:19.437Z,7.85
2022-08-28T23:35:22.339Z,7.40
2022-08-28T23:38:24.448Z,8.80
2022-08-28T23:41:28.310Z,8.05
2022-08-28T23:44:30.427Z,8.55
2022-08-28T23:47:33.307Z,7.20
2022-08-28T23:50:35.386Z,8.57
2022-08-28T23:53:38.927Z,7.95
2022-08-28T23:56:41.833Z,11.57
2022-08-28T23:59:44.223Z,9.93
